createdAt,value
2017-04-12T00:00:28.940Z,11.68
2017-04-12T00:01:27.543Z,11.63
2017-04-12T00:02:26.150Z,11.61
2017-04-12T00:03:24.704Z,11.59
2017-04-12T00:04:23.178Z,11.66
2017-04-12T00:05:21.727Z,11.64
2017-04-12T00:06:20.331Z,11.72
2017-04-12T00:07:18.884Z,11.65
2017-04-12T00:08:17.508Z,11.63
2017-04-12T00:09:16.032Z,11.66
2017-04-12T00:10:14.558Z,11.49
2017-04-12T00:11:13.146Z,11.51
2017-04-12T00:12:11.669Z,11.69
2017-04-12T00:13:10.228Z,11.68
2017-04-12T00:14:08.725Z,11.61
2017-04-12T00:15:07.365Z,11.59
2017-04-12T00:16:05.855Z,11.64
2017-04-12T00:17:04.495Z,11.67
2017-04-12T00:18:03.080Z,11.62
2017-04-12T00:19:01.632Z,11.62
2017-04-12T00:20:00.239Z,11.63
2017-04-12T00:20:58.799Z,11.73
2017-04-12T00:21:57.646Z,11.71
2017-04-12T00:22:56.151Z,11.74
2017-04-12T00:23:54.715Z,11.67
2017-04-12T00:24:53.252Z,11.43
2017-04-12T00:25:51.779Z,11.39
2017-04-12T00:26:50.376Z,11.25
2017-04-12T00:27:48.963Z,11.35
2017-04-12T00:28:47.463Z,11.41
2017-04-12T00:29:46.013Z,11.29
2017-04-12T00:30:44.509Z,11.18
2017-04-12T00:31:43.049Z,11.10
2017-04-12T00:32:41.584Z,11.16
2017-04-12T00:33:40.097Z,11.13
2017-04-12T00:34:38.632Z,11.12
2017-04-12T00:35:37.184Z,11.12
2017-04-12T00:36:35.698Z,11.14
2017-04-12T00:37:34.233Z,11.12
2017-04-12T00:38:32.822Z,11.25
2017-04-12T00:39:31.347Z,11.17
2017-04-12T00:40:29.852Z,11.18
2017-04-12T00:41:28.339Z,11.25
2017-04-12T00:42:26.835Z,11.21
2017-04-12T00:43:25.353Z,11.29
2017-04-12T00:44:23.966Z,11.33
2017-04-12T00:45:22.519Z,11.33
2017-04-12T00:46:21.214Z,11.37
2017-04-12T00:47:19.707Z,11.27
2017-04-12T00:48:18.315Z,11.24
2017-04-12T00:49:16.920Z,11.28
2017-04-12T00:50:15.427Z,11.16
2017-04-12T00:51:13.928Z,11.23
2017-04-12T00:52:12.424Z,11.33
2017-04-12T00:53:10.939Z,11.25
2017-04-12T00:54:09.515Z,11.28
2017-04-12T00:55:08.063Z,11.23
2017-04-12T00:56:06.589Z,11.22
2017-04-12T00:57:05.455Z,11.23
2017-04-12T00:58:04.128Z,11.27
2017-04-12T00:59:02.668Z,11.10
2017-04-12T01:00:01.307Z,11.05
2017-04-12T01:00:59.893Z,10.98
2017-04-12T01:01:58.564Z,11.19
2017-04-12T01:02:57.112Z,11.01
2017-04-12T01:03:55.688Z,10.94
2017-04-12T01:04:54.308Z,11.06
2017-04-12T01:05:52.931Z,11.02
2017-04-12T01:06:51.475Z,11.18
2017-04-12T01:07:49.994Z,10.99
2017-04-12T01:08:48.554Z,11.01
2017-04-12T01:09:47.052Z,10.98
2017-04-12T01:10:45.623Z,10.94
2017-04-12T01:11:44.128Z,10.77
2017-04-12T01:12:42.703Z,10.71
2017-04-12T01:13:41.312Z,10.77
2017-04-12T01:14:39.968Z,10.77
2017-04-12T01:15:38.529Z,10.62
2017-04-12T01:16:37.092Z,10.65
2017-04-12T01:17:35.720Z,10.86
2017-04-12T01:18:34.326Z,10.86
2017-04-12T01:19:32.924Z,10.82
2017-04-12T01:20:31.447Z,10.80
2017-04-12T01:21:30.000Z,10.77
2017-04-12T01:22:28.594Z,10.73
2017-04-12T01:23:27.132Z,10.75
2017-04-12T01:24:25.635Z,10.70
2017-04-12T01:25:24.149Z,10.63
2017-04-12T01:26:22.800Z,10.71
2017-04-12T01:27:21.404Z,10.78
2017-04-12T01:28:20.023Z,10.72
2017-04-12T01:29:18.527Z,10.76
2017-04-12T01:30:17.165Z,10.73
2017-04-12T01:31:15.659Z,10.80
2017-04-12T01:32:14.151Z,10.90
2017-04-12T01:33:12.643Z,10.86
2017-04-12T01:34:11.314Z,10.92
2017-04-12T01:35:09.992Z,10.85
2017-04-12T01:36:08.487Z,10.85
2017-04-12T01:37:07.079Z,10.86
2017-04-12T01:38:05.611Z,10.85
2017-04-12T01:39:04.458Z,10.88
2017-04-12T01:40:02.998Z,10.72
2017-04-12T01:41:01.540Z,10.69
2017-04-12T01:42:00.042Z,10.72
2017-04-12T01:42:58.608Z,10.78
2017-04-12T01:43:57.203Z,10.73
2017-04-12T01:44:55.792Z,10.72
2017-04-12T01:45:54.399Z,10.75
2017-04-12T01:46:52.906Z,10.81
2017-04-12T01:47:51.428Z,10.65
2017-04-12T01:48:50.051Z,10.67
2017-04-12T01:49:48.783Z,10.73
2017-04-12T01:50:47.351Z,10.81
2017-04-12T01:51:45.851Z,10.89
2017-04-12T01:52:44.580Z,10.73
2017-04-12T01:53:43.122Z,10.74
2017-04-12T01:54:41.627Z,10.79
2017-04-12T01:55:40.151Z,10.75
2017-04-12T01:56:38.736Z,10.79
2017-04-12T01:57:37.235Z,10.72
2017-04-12T01:58:35.792Z,10.73
2017-04-12T01:59:34.312Z,10.70
2017-04-12T02:00:32.835Z,10.81
2017-04-12T02:01:31.390Z,10.79
2017-04-12T02:02:29.923Z,10.79
2017-04-12T02:03:28.451Z,10.75
2017-04-12T02:04:27.060Z,10.70
2017-04-12T02:05:25.638Z,10.69
2017-04-12T02:06:24.257Z,10.80
2017-04-12T02:07:22.886Z,10.68
2017-04-12T02:08:21.556Z,10.70
2017-04-12T02:09:20.280Z,10.78
2017-04-12T02:10:18.923Z,10.78
2017-04-12T02:11:17.426Z,10.80
2017-04-12T02:12:15.923Z,10.84
2017-04-12T02:13:14.459Z,10.79
2017-04-12T02:14:12.988Z,10.64
2017-04-12T02:15:11.515Z,10.64
2017-04-12T02:16:10.024Z,10.72
2017-04-12T02:17:08.519Z,10.73
2017-04-12T02:18:07.094Z,10.71
2017-04-12T02:19:05.741Z,10.82
2017-04-12T02:20:04.313Z,10.75
2017-04-12T02:21:02.956Z,10.81
2017-04-12T02:22:01.439Z,10.69
2017-04-12T02:22:59.970Z,10.62
2017-04-12T02:23:58.520Z,10.55
2017-04-12T02:24:57.035Z,10.60
2017-04-12T02:25:55.631Z,10.68
2017-04-12T02:26:54.221Z,10.67
2017-04-12T02:27:52.714Z,10.71
2017-04-12T02:28:51.240Z,10.70
2017-04-12T02:29:49.873Z,10.69
2017-04-12T02:30:48.406Z,10.72
2017-04-12T02:31:46.995Z,10.81
2017-04-12T02:32:45.510Z,10.84
2017-04-12T02:33:44.015Z,10.79
2017-04-12T02:34:42.560Z,10.79
2017-04-12T02:35:41.104Z,10.84
2017-04-12T02:36:39.615Z,10.95
2017-04-12T02:37:38.159Z,10.77
2017-04-12T02:38:36.660Z,10.76
2017-04-12T02:39:35.166Z,10.74
2017-04-12T02:40:33.695Z,10.71
2017-04-12T02:41:32.195Z,10.78
2017-04-12T02:42:30.720Z,10.80
2017-04-12T02:43:29.240Z,10.80
2017-04-12T02:44:27.816Z,10.72
2017-04-12T02:45:26.300Z,10.72
2017-04-12T02:46:24.855Z,10.65
2017-04-12T02:47:23.459Z,10.67
2017-04-12T02:48:22.056Z,10.69
2017-04-12T02:49:20.667Z,10.62
2017-04-12T02:50:19.212Z,10.72
2017-04-12T02:51:17.740Z,10.72
2017-04-12T02:52:16.266Z,10.75
2017-04-12T02:53:14.790Z,10.76
2017-04-12T02:54:13.294Z,10.78
2017-04-12T02:55:11.799Z,10.72
2017-04-12T02:56:10.518Z,10.63
2017-04-12T02:57:09.025Z,10.51
2017-04-12T02:58:07.586Z,10.41
2017-04-12T02:59:06.175Z,10.48
2017-04-12T03:00:04.712Z,10.44
2017-04-12T03:01:03.310Z,10.47
2017-04-12T03:02:01.916Z,10.55
2017-04-12T03:03:00.439Z,10.56
2017-04-12T03:03:58.915Z,10.58
2017-04-12T03:04:57.399Z,10.56
2017-04-12T03:05:55.958Z,10.48
2017-04-12T03:06:54.526Z,10.57
2017-04-12T03:07:53.153Z,10.51
2017-04-12T03:08:51.788Z,10.50
2017-04-12T03:09:50.323Z,10.56
2017-04-12T03:10:48.999Z,10.59
2017-04-12T03:11:47.523Z,10.55
2017-04-12T03:12:46.066Z,10.42
2017-04-12T03:13:44.595Z,10.53
2017-04-12T03:14:43.136Z,10.52
2017-04-12T03:15:41.653Z,10.46
2017-04-12T03:16:40.208Z,10.40
2017-04-12T03:17:38.699Z,10.41
2017-04-12T03:18:37.290Z,10.44
2017-04-12T03:19:35.863Z,10.57
2017-04-12T03:20:34.487Z,10.50
2017-04-12T03:21:33.003Z,10.59
2017-04-12T03:22:31.564Z,10.58
2017-04-12T03:23:30.088Z,10.46
2017-04-12T03:24:28.595Z,10.48
2017-04-12T03:25:27.174Z,10.34
2017-04-12T03:26:25.703Z,10.36
2017-04-12T03:27:24.217Z,10.42
2017-04-12T03:28:22.800Z,10.56
2017-04-12T03:29:21.291Z,10.43
2017-04-12T03:30:20.070Z,10.37
2017-04-12T03:31:18.640Z,10.34
2017-04-12T03:32:17.202Z,10.36
2017-04-12T03:33:15.707Z,10.27
2017-04-12T03:34:14.287Z,10.15
2017-04-12T03:35:12.868Z,10.27
2017-04-12T03:36:11.380Z,10.22
2017-04-12T03:37:09.887Z,10.22
2017-04-12T03:38:08.491Z,10.35
2017-04-12T03:39:07.779Z,10.34
2017-04-12T03:40:06.315Z,10.20
2017-04-12T03:41:04.875Z,10.19
2017-04-12T03:42:03.503Z,10.61
2017-04-12T03:43:02.102Z,10.49
2017-04-12T03:44:00.697Z,10.49
2017-04-12T03:44:59.208Z,10.44
2017-04-12T03:45:57.791Z,10.40
2017-04-12T03:46:56.298Z,10.28
2017-04-12T03:47:54.841Z,10.24
2017-04-12T03:48:53.360Z,10.46
2017-04-12T03:49:51.941Z,10.48
2017-04-12T03:50:50.447Z,10.39
2017-04-12T03:51:48.959Z,10.63
2017-04-12T03:52:47.539Z,10.53
2017-04-12T03:53:46.103Z,10.49
2017-04-12T03:54:44.636Z,10.47
2017-04-12T03:55:43.134Z,10.49
2017-04-12T03:56:41.644Z,10.59
2017-04-12T03:57:40.152Z,10.64
2017-04-12T03:58:38.745Z,10.54
2017-04-12T03:59:37.354Z,10.54
2017-04-12T04:00:35.924Z,10.50
2017-04-12T04:01:34.465Z,10.64
2017-04-12T04:02:33.012Z,10.62
2017-04-12T04:03:31.499Z,10.41
2017-04-12T04:04:29.988Z,10.45
2017-04-12T04:05:28.499Z,10.45
2017-04-12T04:06:27.064Z,10.48
2017-04-12T04:07:25.562Z,10.59
2017-04-12T04:08:24.182Z,10.59
2017-04-12T04:09:22.783Z,10.56
2017-04-12T04:10:21.436Z,10.41
2017-04-12T04:11:19.980Z,10.38
2017-04-12T04:12:18.511Z,10.38
2017-04-12T04:13:17.011Z,10.39
2017-04-12T04:14:15.632Z,10.48
2017-04-12T04:15:14.155Z,10.61
2017-04-12T04:16:12.736Z,10.37
2017-04-12T04:17:11.242Z,10.36
2017-04-12T04:18:09.739Z,10.27
2017-04-12T04:19:08.276Z,10.23
2017-04-12T04:20:06.794Z,10.36
2017-04-12T04:21:05.313Z,10.56
2017-04-12T04:22:03.830Z,10.62
2017-04-12T04:23:02.323Z,10.46
2017-04-12T04:24:00.844Z,10.33
2017-04-12T04:24:59.343Z,10.31
2017-04-12T04:25:57.883Z,10.26
2017-04-12T04:26:56.475Z,10.27
2017-04-12T04:27:55.063Z,10.43
2017-04-12T04:28:53.715Z,10.39
2017-04-12T04:29:52.244Z,10.33
2017-04-12T04:30:50.763Z,10.28
2017-04-12T04:31:49.284Z,10.32
2017-04-12T04:32:47.835Z,10.27
2017-04-12T04:33:46.418Z,10.33
2017-04-12T04:34:44.953Z,10.33
2017-04-12T04:35:43.463Z,10.46
2017-04-12T04:36:41.988Z,10.43
2017-04-12T04:37:40.588Z,10.41
2017-04-12T04:38:39.199Z,10.40
2017-04-12T04:39:38.006Z,10.49
2017-04-12T04:40:36.602Z,10.74
2017-04-12T04:41:35.203Z,10.56
2017-04-12T04:42:33.821Z,10.44
2017-04-12T04:43:32.460Z,10.29
2017-04-12T04:44:31.003Z,10.44
2017-04-12T04:45:29.596Z,10.46
2017-04-12T04:46:28.186Z,10.43
2017-04-12T04:47:26.715Z,10.38
2017-04-12T04:48:25.210Z,10.30
2017-04-12T04:49:23.719Z,10.30
2017-04-12T04:50:22.272Z,10.30
2017-04-12T04:51:20.826Z,10.21
2017-04-12T04:52:19.315Z,10.24
2017-04-12T04:53:17.914Z,10.36
2017-04-12T04:54:16.411Z,10.34
2017-04-12T04:55:15.156Z,10.37
2017-04-12T04:56:13.692Z,10.33
2017-04-12T04:57:12.223Z,10.36
2017-04-12T04:58:10.787Z,10.37
2017-04-12T04:59:09.279Z,10.37
2017-04-12T05:00:07.884Z,10.36
2017-04-12T05:01:06.410Z,10.38
2017-04-12T05:02:04.946Z,10.50
2017-04-12T05:03:03.483Z,10.52
2017-04-12T05:04:02.112Z,10.48
2017-04-12T05:05:00.625Z,10.37
2017-04-12T05:05:59.171Z,10.46
2017-04-12T05:06:57.751Z,10.46
2017-04-12T05:07:56.246Z,10.45
2017-04-12T05:08:54.756Z,10.55
2017-04-12T05:09:53.321Z,10.51
2017-04-12T05:10:51.819Z,10.47
2017-04-12T05:11:50.323Z,10.50
2017-04-12T05:12:48.924Z,10.45
2017-04-12T05:13:47.428Z,10.52
2017-04-12T05:14:45.932Z,10.56
2017-04-12T05:15:44.430Z,10.59
2017-04-12T05:16:43.122Z,10.59
2017-04-12T05:17:41.694Z,10.62
2017-04-12T05:18:40.189Z,10.71
2017-04-12T05:19:38.719Z,10.61
2017-04-12T05:20:37.216Z,10.56
2017-04-12T05:21:35.782Z,10.49
2017-04-12T05:22:34.346Z,10.53
2017-04-12T05:24:38.006Z,10.42
2017-04-12T05:25:36.557Z,10.30
2017-04-12T05:26:35.068Z,10.33
2017-04-12T05:27:33.559Z,10.34
2017-04-12T05:28:32.092Z,10.26
2017-04-12T05:29:30.624Z,10.27
2017-04-12T05:30:29.132Z,10.25
2017-04-12T05:31:27.631Z,10.28
2017-04-12T05:32:26.210Z,10.30
2017-04-12T05:33:24.771Z,10.24
2017-04-12T05:34:23.274Z,10.22
2017-04-12T05:35:21.767Z,10.25
2017-04-12T05:36:20.343Z,10.17
2017-04-12T05:37:18.948Z,10.33
2017-04-12T05:38:17.455Z,10.38
2017-04-12T05:39:15.955Z,10.32
2017-04-12T05:40:14.532Z,10.35
2017-04-12T05:41:13.051Z,10.35
2017-04-12T05:42:11.619Z,10.45
2017-04-12T05:43:10.219Z,10.42
2017-04-12T05:44:08.780Z,10.43
2017-04-12T05:45:07.294Z,10.49
2017-04-12T05:46:05.795Z,10.33
2017-04-12T05:47:04.348Z,10.33
2017-04-12T05:48:02.932Z,10.26
2017-04-12T05:49:01.476Z,10.40
2017-04-12T05:49:59.984Z,10.46
2017-04-12T05:50:58.492Z,10.35
2017-04-12T05:51:57.032Z,10.36
2017-04-12T05:52:55.536Z,10.50
2017-04-12T05:53:54.063Z,10.43
2017-04-12T05:54:52.612Z,10.36
2017-04-12T05:55:51.163Z,10.25
2017-04-12T05:56:49.683Z,10.32
2017-04-12T05:57:48.231Z,10.37
2017-04-12T05:58:46.727Z,10.27
2017-04-12T05:59:45.254Z,10.37
2017-04-12T06:00:43.798Z,10.39
2017-04-12T06:01:42.319Z,10.29
2017-04-12T06:02:40.824Z,10.25
2017-04-12T06:03:39.411Z,10.39
2017-04-12T06:04:38.036Z,10.37
2017-04-12T06:05:36.540Z,10.35
2017-04-12T06:06:35.165Z,10.47
2017-04-12T06:07:33.945Z,10.57
2017-04-12T06:08:32.854Z,10.48
2017-04-12T06:09:31.363Z,10.62
2017-04-12T06:10:30.135Z,10.60
2017-04-12T06:11:28.700Z,10.64
2017-04-12T06:12:27.264Z,10.65
2017-04-12T06:13:25.800Z,10.66
2017-04-12T06:14:24.440Z,10.68
2017-04-12T06:15:23.072Z,10.66
2017-04-12T06:16:21.659Z,10.81
2017-04-12T06:17:20.208Z,10.80
2017-04-12T06:18:19.037Z,10.75
2017-04-12T06:19:17.589Z,10.77
2017-04-12T06:20:16.103Z,10.76
2017-04-12T06:21:14.693Z,10.63
2017-04-12T06:22:13.243Z,10.51
2017-04-12T06:23:11.744Z,10.44
2017-04-12T06:24:10.384Z,10.47
2017-04-12T06:25:08.919Z,10.56
2017-04-12T06:26:07.434Z,10.74
2017-04-12T06:27:06.070Z,10.67
2017-04-12T06:28:04.601Z,10.75
2017-04-12T06:29:03.143Z,10.85
2017-04-12T06:30:01.630Z,10.83
2017-04-12T06:31:00.167Z,10.82
2017-04-12T06:31:58.667Z,10.70
2017-04-12T06:32:57.195Z,10.67
2017-04-12T06:33:55.868Z,10.71
2017-04-12T06:34:54.399Z,10.71
2017-04-12T06:35:52.974Z,10.71
2017-04-12T06:36:51.515Z,10.82
2017-04-12T06:37:50.055Z,10.73
2017-04-12T06:38:48.588Z,10.72
2017-04-12T06:39:47.170Z,10.77
2017-04-12T06:40:45.711Z,10.92
2017-04-12T06:41:44.261Z,10.92
2017-04-12T06:42:42.768Z,11.14
2017-04-12T06:43:41.353Z,11.16
2017-04-12T06:44:39.870Z,11.21
2017-04-12T06:45:38.385Z,11.05
2017-04-12T06:46:36.900Z,11.03
2017-04-12T06:47:35.635Z,11.04
2017-04-12T06:48:34.182Z,11.07
2017-04-12T06:49:32.763Z,11.23
2017-04-12T06:50:31.296Z,11.26
2017-04-12T06:51:29.863Z,11.23
2017-04-12T06:52:28.383Z,11.21
2017-04-12T06:53:26.913Z,11.15
2017-04-12T06:54:25.444Z,11.04
2017-04-12T06:55:23.979Z,11.08
2017-04-12T06:56:22.469Z,11.07
2017-04-12T06:57:20.987Z,11.17
2017-04-12T06:58:19.516Z,11.16
2017-04-12T06:59:18.051Z,11.08
2017-04-12T07:00:16.633Z,11.07
2017-04-12T07:01:15.176Z,11.10
2017-04-12T07:02:13.763Z,11.04
2017-04-12T07:03:19.762Z,11.06
2017-04-12T07:04:18.367Z,11.10
2017-04-12T07:05:16.965Z,11.03
2017-04-12T07:06:15.611Z,11.01
2017-04-12T07:07:14.242Z,11.11
2017-04-12T07:08:13.221Z,11.15
2017-04-12T07:09:11.742Z,11.19
2017-04-12T07:10:10.256Z,11.21
2017-04-12T07:11:08.792Z,11.23
2017-04-12T07:12:07.402Z,11.35
2017-04-12T07:13:05.912Z,11.40
2017-04-12T07:14:04.497Z,11.31
2017-04-12T07:15:03.048Z,11.29
2017-04-12T07:16:01.631Z,11.35
2017-04-12T07:17:00.222Z,11.41
2017-04-12T07:17:58.851Z,11.41
2017-04-12T07:18:57.372Z,11.41
2017-04-12T07:19:55.891Z,11.43
2017-04-12T07:20:54.418Z,11.53
2017-04-12T07:21:52.951Z,11.48
2017-04-12T07:22:51.559Z,11.54
2017-04-12T07:23:50.158Z,11.49
2017-04-12T07:24:48.751Z,11.51
2017-04-12T07:25:47.239Z,11.54
2017-04-12T07:26:45.736Z,11.62
2017-04-12T07:27:44.263Z,11.65
2017-04-12T07:28:43.060Z,11.63
2017-04-12T07:29:41.579Z,11.67
2017-04-12T07:30:40.219Z,11.68
2017-04-12T07:31:38.847Z,11.69
2017-04-12T07:32:37.459Z,11.59
2017-04-12T07:33:35.998Z,11.64
2017-04-12T07:34:34.519Z,11.67
2017-04-12T07:35:33.088Z,11.70
2017-04-12T07:36:31.658Z,11.67
2017-04-12T07:37:30.272Z,11.74
2017-04-12T07:38:28.851Z,11.77
2017-04-12T07:39:27.404Z,11.81
2017-04-12T07:40:25.945Z,11.80
2017-04-12T07:41:24.474Z,11.87
2017-04-12T07:42:22.990Z,11.92
2017-04-12T07:43:21.639Z,12.04
2017-04-12T07:44:20.179Z,11.94
2017-04-12T07:45:18.879Z,12.01
2017-04-12T07:46:17.408Z,11.95
2017-04-12T07:47:16.001Z,12.08
2017-04-12T07:48:14.504Z,12.01
2017-04-12T07:49:13.056Z,11.92
2017-04-12T07:50:11.663Z,11.88
2017-04-12T07:51:10.218Z,11.87
2017-04-12T07:52:08.789Z,11.88
2017-04-12T07:53:07.359Z,11.87
2017-04-12T07:54:06.295Z,11.84
2017-04-12T07:55:04.919Z,11.93
2017-04-12T07:56:03.513Z,11.92
2017-04-12T07:57:02.151Z,12.12
2017-04-12T07:58:00.783Z,12.15
2017-04-12T07:58:59.369Z,12.09
2017-04-12T07:59:57.875Z,12.23
2017-04-12T08:00:56.437Z,12.24
2017-04-12T08:01:55.011Z,12.23
2017-04-12T08:02:54.176Z,12.24
2017-04-12T08:03:52.758Z,12.34
2017-04-12T08:04:51.324Z,12.39
2017-04-12T08:05:49.918Z,12.41
2017-04-12T08:06:48.483Z,12.29
2017-04-12T08:07:47.008Z,12.36
2017-04-12T08:08:45.533Z,12.31
2017-04-12T08:09:44.104Z,12.40
2017-04-12T08:10:42.603Z,12.34
2017-04-12T08:11:41.123Z,12.41
2017-04-12T08:12:39.656Z,12.48
2017-04-12T08:13:38.239Z,12.59
2017-04-12T08:14:36.744Z,12.60
2017-04-12T08:15:35.331Z,12.50
2017-04-12T08:16:33.899Z,12.49
2017-04-12T08:17:32.433Z,12.56
2017-04-12T08:18:30.980Z,12.62
2017-04-12T08:19:29.555Z,12.53
2017-04-12T08:20:28.103Z,12.54
2017-04-12T08:21:26.610Z,12.57
2017-04-12T08:22:25.100Z,12.57
2017-04-12T08:23:23.616Z,12.53
2017-04-12T08:24:22.228Z,12.57
2017-04-12T08:25:20.776Z,12.63
2017-04-12T08:26:19.279Z,12.51
2017-04-12T08:27:17.802Z,12.73
2017-04-12T08:28:16.311Z,12.76
2017-04-12T08:29:14.826Z,12.79
2017-04-12T08:30:13.358Z,12.73
2017-04-12T08:31:11.850Z,12.68
2017-04-12T08:32:10.480Z,12.64
2017-04-12T08:33:09.075Z,12.76
2017-04-12T08:34:07.581Z,12.87
2017-04-12T08:35:06.169Z,12.89
2017-04-12T08:36:04.721Z,12.93
2017-04-12T08:37:03.244Z,13.01
2017-04-12T08:38:01.815Z,12.93
2017-04-12T08:39:00.623Z,13.01
2017-04-12T08:39:59.139Z,13.10
2017-04-12T08:40:57.711Z,13.19
2017-04-12T08:41:56.344Z,13.09
2017-04-12T08:42:54.928Z,12.93
2017-04-12T08:43:53.444Z,12.92
2017-04-12T08:44:52.036Z,13.03
2017-04-12T08:45:50.547Z,13.02
2017-04-12T08:46:49.133Z,13.06
2017-04-12T08:47:47.862Z,13.00
2017-04-12T08:48:46.455Z,12.85
2017-04-12T08:49:45.324Z,13.00
2017-04-12T08:50:43.843Z,12.99
2017-04-12T08:51:42.431Z,13.09
2017-04-12T08:52:40.986Z,13.08
2017-04-12T08:53:39.538Z,13.14
2017-04-12T08:54:38.125Z,13.14
2017-04-12T08:55:36.637Z,13.21
2017-04-12T08:56:35.172Z,13.18
2017-04-12T08:57:33.691Z,13.31
2017-04-12T08:58:32.923Z,13.24
2017-04-12T08:59:31.572Z,13.41
2017-04-12T09:00:30.148Z,13.39
2017-04-12T09:01:28.690Z,13.52
2017-04-12T09:02:27.219Z,13.49
2017-04-12T09:03:25.800Z,13.45
2017-04-12T09:04:24.314Z,13.41
2017-04-12T09:05:22.875Z,13.56
2017-04-12T09:06:21.395Z,13.58
2017-04-12T09:07:19.939Z,13.58
2017-04-12T09:08:18.471Z,13.63
2017-04-12T09:09:17.039Z,13.81
2017-04-12T09:10:15.547Z,13.74
2017-04-12T09:11:14.089Z,13.64
2017-04-12T09:12:12.663Z,13.54
2017-04-12T09:13:11.184Z,13.64
2017-04-12T09:14:09.754Z,13.63
2017-04-12T09:15:08.539Z,13.66
2017-04-12T09:16:07.034Z,13.73
2017-04-12T09:17:05.723Z,13.67
2017-04-12T09:18:04.271Z,13.61
2017-04-12T09:19:02.755Z,13.70
2017-04-12T09:20:01.285Z,13.71
2017-04-12T09:20:59.826Z,13.72
2017-04-12T09:21:58.327Z,13.71
2017-04-12T09:22:56.804Z,13.77
2017-04-12T09:23:55.409Z,13.92
2017-04-12T09:24:53.994Z,13.88
2017-04-12T09:25:52.554Z,13.99
2017-04-12T09:26:51.230Z,13.94
2017-04-12T09:27:49.723Z,13.93
2017-04-12T09:28:48.281Z,14.04
2017-04-12T09:29:46.799Z,14.03
2017-04-12T09:30:45.317Z,14.00
2017-04-12T09:31:43.919Z,14.13
2017-04-12T09:32:42.534Z,14.20
2017-04-12T09:33:41.072Z,14.28
2017-04-12T09:34:39.572Z,14.34
2017-04-12T09:35:38.162Z,14.30
2017-04-12T09:36:36.687Z,14.33
2017-04-12T09:37:35.222Z,14.31
2017-04-12T09:38:33.860Z,14.33
2017-04-12T09:39:32.379Z,14.27
2017-04-12T09:40:31.131Z,14.35
2017-04-12T09:41:29.656Z,14.31
2017-04-12T09:42:28.168Z,14.31
2017-04-12T09:43:26.708Z,14.37
2017-04-12T09:44:25.363Z,14.45
2017-04-12T09:45:24.007Z,14.50
2017-04-12T09:46:22.607Z,14.57
2017-04-12T09:47:21.283Z,14.58
2017-04-12T09:48:19.933Z,14.63
2017-04-12T09:49:18.488Z,14.69
2017-04-12T09:50:17.027Z,14.53
2017-04-12T09:51:15.571Z,14.44
2017-04-12T09:52:14.114Z,14.47
2017-04-12T09:53:12.621Z,14.31
2017-04-12T09:54:11.107Z,14.36
2017-04-12T09:55:09.603Z,14.34
2017-04-12T09:56:08.123Z,14.33
2017-04-12T09:57:06.647Z,14.24
2017-04-12T09:58:05.180Z,14.27
2017-04-12T09:59:03.711Z,14.31
2017-04-12T10:00:02.222Z,14.26
2017-04-12T10:01:00.748Z,14.32
2017-04-12T10:01:59.371Z,14.35
2017-04-12T10:02:57.882Z,14.32
2017-04-12T10:03:56.399Z,14.23
2017-04-12T10:04:54.918Z,14.34
2017-04-12T10:05:53.535Z,14.29
2017-04-12T10:06:52.194Z,14.39
2017-04-12T10:07:50.702Z,14.43
2017-04-12T10:08:49.311Z,14.56
2017-04-12T10:09:47.850Z,14.66
2017-04-12T10:10:46.486Z,14.71
2017-04-12T10:11:45.057Z,14.56
2017-04-12T10:12:43.559Z,14.60
2017-04-12T10:13:42.050Z,14.52
2017-04-12T10:14:40.578Z,14.55
2017-04-12T10:15:39.099Z,14.45
2017-04-12T10:16:37.679Z,14.51
2017-04-12T10:17:36.266Z,14.55
2017-04-12T10:18:34.811Z,14.42
2017-04-12T10:19:33.495Z,14.49
2017-04-12T10:20:32.024Z,14.56
2017-04-12T10:21:30.676Z,14.53
2017-04-12T10:22:29.211Z,14.68
2017-04-12T10:23:27.752Z,14.64
2017-04-12T10:24:26.256Z,14.65
2017-04-12T10:25:24.779Z,14.56
2017-04-12T10:26:23.339Z,14.57
2017-04-12T10:27:21.860Z,14.70
2017-04-12T10:28:20.391Z,14.69
2017-04-12T10:29:18.904Z,14.68
2017-04-12T10:30:17.408Z,14.67
2017-04-12T10:31:15.931Z,14.81
2017-04-12T10:32:14.480Z,14.82
2017-04-12T10:33:13.019Z,14.76
2017-04-12T10:34:11.539Z,14.83
2017-04-12T10:35:10.071Z,14.87
2017-04-12T10:36:08.624Z,14.87
2017-04-12T10:37:07.161Z,14.83
2017-04-12T10:38:05.771Z,14.79
2017-04-12T10:39:04.797Z,14.74
2017-04-12T10:40:03.322Z,14.75
2017-04-12T10:41:01.812Z,14.80
2017-04-12T10:42:00.359Z,14.82
2017-04-12T10:42:58.884Z,14.87
2017-04-12T10:43:57.407Z,14.89
2017-04-12T10:44:55.892Z,14.82
2017-04-12T10:45:54.409Z,14.77
2017-04-12T10:46:52.976Z,14.82
2017-04-12T10:47:51.507Z,14.82
2017-04-12T10:48:50.022Z,14.86
2017-04-12T10:49:48.543Z,14.83
2017-04-12T10:50:47.121Z,14.91
2017-04-12T10:51:45.646Z,14.85
2017-04-12T10:52:44.167Z,15.00
2017-04-12T10:53:42.647Z,14.96
2017-04-12T10:54:41.200Z,14.92
2017-04-12T10:55:39.802Z,14.89
2017-04-12T10:56:38.319Z,14.89
2017-04-12T10:57:36.823Z,14.94
2017-04-12T10:58:35.400Z,15.00
2017-04-12T10:59:33.991Z,15.06
2017-04-12T11:00:32.526Z,15.14
2017-04-12T11:01:31.107Z,15.10
2017-04-12T11:02:29.743Z,15.16
2017-04-12T11:03:28.264Z,15.09
2017-04-12T11:04:26.807Z,15.12
2017-04-12T11:05:25.423Z,15.06
2017-04-12T11:06:23.995Z,15.12
2017-04-12T11:07:22.526Z,15.15
2017-04-12T11:08:21.140Z,15.26
2017-04-12T11:09:19.660Z,15.13
2017-04-12T11:10:18.165Z,15.25
2017-04-12T11:11:16.678Z,15.31
2017-04-12T11:12:15.206Z,15.26
2017-04-12T11:13:13.787Z,15.19
2017-04-12T11:14:12.330Z,15.07
2017-04-12T11:15:10.867Z,15.07
2017-04-12T11:16:09.471Z,15.11
2017-04-12T11:17:08.043Z,15.07
2017-04-12T11:18:06.503Z,15.07
2017-04-12T11:19:05.052Z,15.11
2017-04-12T11:20:03.699Z,15.07
2017-04-12T11:21:02.239Z,15.10
2017-04-12T11:22:00.816Z,15.04
2017-04-12T11:22:59.331Z,15.04
2017-04-12T11:23:57.984Z,15.07
2017-04-12T11:24:56.578Z,15.18
2017-04-12T11:25:55.111Z,15.23
2017-04-12T11:26:53.930Z,15.16
2017-04-12T11:27:52.538Z,15.16
2017-04-12T11:28:51.151Z,15.15
2017-04-12T11:29:49.711Z,15.23
2017-04-12T11:30:48.242Z,15.27
2017-04-12T11:31:46.757Z,15.24
2017-04-12T11:32:45.275Z,15.27
2017-04-12T11:33:43.777Z,15.13
2017-04-12T11:34:42.295Z,15.05
2017-04-12T11:35:40.862Z,15.15
2017-04-12T11:36:39.392Z,15.13
2017-04-12T11:37:37.964Z,15.18
2017-04-12T11:38:36.486Z,15.14
2017-04-12T11:39:34.992Z,15.12
2017-04-12T11:40:33.518Z,15.18
2017-04-12T11:41:32.010Z,15.22
2017-04-12T11:42:30.531Z,15.19
2017-04-12T11:43:29.056Z,15.15
2017-04-12T11:44:27.534Z,15.28
2017-04-12T11:45:26.075Z,15.29
2017-04-12T11:46:24.595Z,15.26
2017-04-12T11:47:23.068Z,15.36
2017-04-12T11:48:21.584Z,15.37
2017-04-12T11:49:20.103Z,15.36
2017-04-12T11:50:18.677Z,15.09
2017-04-12T11:51:17.316Z,15.14
2017-04-12T11:52:16.378Z,15.08
2017-04-12T11:53:14.883Z,15.26
2017-04-12T11:54:13.407Z,15.29
2017-04-12T11:55:11.952Z,15.31
2017-04-12T11:56:10.594Z,15.27
2017-04-12T11:57:09.126Z,15.27
2017-04-12T11:58:07.675Z,15.26
2017-04-12T11:59:06.178Z,15.39
2017-04-12T12:00:04.744Z,15.50
2017-04-12T12:01:03.280Z,15.59
2017-04-12T12:02:01.792Z,15.50
2017-04-12T12:03:00.335Z,15.66
2017-04-12T12:03:58.798Z,15.57
2017-04-12T12:04:57.314Z,15.69
2017-04-12T12:05:55.812Z,15.63
2017-04-12T12:06:54.298Z,15.70
2017-04-12T12:07:52.811Z,15.60
2017-04-12T12:08:51.359Z,15.62
2017-04-12T12:09:49.860Z,15.63
2017-04-12T12:10:48.376Z,15.83
2017-04-12T12:11:46.945Z,15.97
2017-04-12T12:12:45.571Z,16.03
2017-04-12T12:13:44.138Z,16.03
2017-04-12T12:14:42.681Z,16.13
2017-04-12T12:15:41.167Z,15.99
2017-04-12T12:16:39.738Z,15.90
2017-04-12T12:17:38.448Z,15.88
2017-04-12T12:18:37.043Z,15.86
2017-04-12T12:19:35.806Z,15.80
2017-04-12T12:20:34.280Z,15.69
2017-04-12T12:21:32.866Z,15.65
2017-04-12T12:22:31.451Z,15.74
2017-04-12T12:23:30.050Z,15.72
2017-04-12T12:24:28.619Z,15.72
2017-04-12T12:25:27.171Z,15.66
2017-04-12T12:26:25.676Z,15.69
2017-04-12T12:27:24.287Z,15.74
2017-04-12T12:28:22.787Z,15.69
2017-04-12T12:29:21.316Z,15.71
2017-04-12T12:30:19.791Z,15.62
2017-04-12T12:31:18.363Z,15.60
2017-04-12T12:32:17.099Z,15.49
2017-04-12T12:33:15.639Z,15.59
2017-04-12T12:34:14.200Z,15.61
2017-04-12T12:35:12.741Z,15.67